sensor_id;sensor_type;location;lat;lon;timestamp;pressure;altitude;pressure_sealevel;temperature;humidity
63715;BME280;49858;48.956;9.076;2023-04-08T00:02:16;99020.81;;;9.70;100.00
63715;BME280;49858;48.956;9.076;2023-04-08T00:04:44;99027.31;;;9.53;100.00
63715;BME280;49858;48.956;9.076;2023-04-08T00:07:12;99025.72;;;9.52;100.00
63715;BME280;49858;48.956;9.076;2023-04-08T00:09:40;99026.31;;;9.94;100.00
63715;BME280;49858;48.956;9.076;2023-04-08T00:12:08;99024.94;;;10.13;100.00
63715;BME280;49858;48.956;9.076;2023-04-08T00:14:36;99018.78;;;9.79;100.00
63715;BME280;49858;48.956;9.076;2023-04-08T00:17:04;99026.31;;;9.82;100.00
63715;BME280;49858;48.956;9.076;2023-04-08T00:19:33;99018.97;;;9.86;100.00
63715;BME280;49858;48.956;9.076;2023-04-08T00:22:01;99027.09;;;10.19;100.00
63715;BME280;49858;48.956;9.076;2023-04-08T00:24:29;99024.69;;;10.18;100.00
63715;BME280;49858;48.956;9.076;2023-04-08T00:26:57;99025.03;;;9.92;100.00
63715;BME280;49858;48.956;9.076;2023-04-08T00:29:25;99030.88;;;9.66;100.00
63715;BME280;49858;48.956;9.076;2023-04-08T00:31:56;99024.25;;;9.67;100.00
63715;BME280;49858;48.956;9.076;2023-04-08T00:34:25;99026.66;;;10.17;100.00
63715;BME280;49858;48.956;9.076;2023-04-08T00:36:54;99029.16;;;10.35;100.00
63715;BME280;49858;48.956;9.076;2023-04-08T00:39:23;99032.56;;;10.56;100.00
63715;BME280;49858;48.956;9.076;2023-04-08T00:41:51;99025.38;;;10.39;100.00
63715;BME280;49858;48.956;9.076;2023-04-08T00:44:19;99034.09;;;9.92;100.00
63715;BME280;49858;48.956;9.076;2023-04-08T00:46:49;99036.44;;;9.45;100.00
63715;BME280;49858;48.956;9.076;2023-04-08T00:49:16;99041.34;;;9.27;100.00
63715;BME280;49858;48.956;9.076;2023-04-08T00:51:44;99038.66;;;9.52;100.00
63715;BME280;49858;48.956;9.076;2023-04-08T00:54:13;99039.41;;;9.28;100.00
63715;BME280;49858;48.956;9.076;2023-04-08T00:56:42;99044.41;;;9.13;100.00
63715;BME280;49858;48.956;9.076;2023-04-08T00:59:12;99042.69;;;9.21;100.00
63715;BME280;49858;48.956;9.076;2023-04-08T01:01:43;99051.72;;;9.91;100.00
63715;BME280;49858;48.956;9.076;2023-04-08T01:04:27;99040.06;;;9.94;100.00
63715;BME280;49858;48.956;9.076;2023-04-08T01:07:05;99045.03;;;10.54;100.00
63715;BME280;49858;48.956;9.076;2023-04-08T01:09:38;99038.13;;;10.32;100.00
63715;BME280;49858;48.956;9.076;2023-04-08T01:12:10;99044.03;;;10.86;100.00
63715;BME280;49858;48.956;9.076;2023-04-08T01:14:42;99046.06;;;11.02;100.00
63715;BME280;49858;48.956;9.076;2023-04-08T01:17:14;99038.25;;;11.04;100.00
63715;BME280;49858;48.956;9.076;2023-04-08T01:19:46;99042.19;;;10.90;100.00
63715;BME280;49858;48.956;9.076;2023-04-08T01:22:23;99047.13;;;10.85;100.00
63715;BME280;49858;48.956;9.076;2023-04-08T01:25:00;99041.50;;;10.93;100.00
63715;BME280;49858;48.956;9.076;2023-04-08T01:27:31;99035.78;;;10.46;100.00
63715;BME280;49858;48.956;9.076;2023-04-08T01:30:00;99044.75;;;10.18;100.00
63715;BME280;49858;48.956;9.076;2023-04-08T01:32:31;99035.00;;;10.21;100.00
63715;BME280;49858;48.956;9.076;2023-04-08T01:35:00;99040.31;;;10.26;100.00
63715;BME280;49858;48.956;9.076;2023-04-08T01:37:30;99035.47;;;9.62;100.00
63715;BME280;49858;48.956;9.076;2023-04-08T01:40:00;99037.25;;;9.45;100.00
63715;BME280;49858;48.956;9.076;2023-04-08T01:42:30;99039.44;;;9.64;100.00
63715;BME280;49858;48.956;9.076;2023-04-08T01:45:02;99032.06;;;9.19;100.00
63715;BME280;49858;48.956;9.076;2023-04-08T01:47:30;99034.41;;;9.42;100.00
63715;BME280;49858;48.956;9.076;2023-04-08T01:49:58;99032.47;;;9.42;100.00
63715;BME280;49858;48.956;9.076;2023-04-08T01:52:27;99030.16;;;8.99;100.00
63715;BME280;49858;48.956;9.076;2023-04-08T01:54:56;99035.31;;;9.01;100.00
63715;BME280;49858;48.956;9.076;2023-04-08T01:57:27;99035.38;;;9.25;100.00
63715;BME280;49858;48.956;9.076;2023-04-08T02:00:02;99040.41;;;9.23;100.00
63715;BME280;49858;48.956;9.076;2023-04-08T02:02:50;99032.09;;;9.32;100.00
63715;BME280;49858;48.956;9.076;2023-04-08T02:05:18;99028.16;;;9.08;100.00
63715;BME280;49858;48.956;9.076;2023-04-08T02:07:47;99033.63;;;9.08;100.00
63715;BME280;49858;48.956;9.076;2023-04-08T02:10:15;99028.44;;;8.74;100.00
63715;BME280;49858;48.956;9.076;2023-04-08T02:12:43;99037.94;;;8.34;100.00
63715;BME280;49858;48.956;9.076;2023-04-08T02:15:13;99040.31;;;8.36;100.00
63715;BME280;49858;48.956;9.076;2023-04-08T02:17:43;99037.94;;;8.34;100.00
63715;BME280;49858;48.956;9.076;2023-04-08T02:20:16;99041.47;;;8.35;100.00
63715;BME280;49858;48.956;9.076;2023-04-08T02:22:47;99039.53;;;8.35;100.00
63715;BME280;49858;48.956;9.076;2023-04-08T02:25:20;99044.06;;;8.31;100.00
63715;BME280;49858;48.956;9.076;2023-04-08T02:27:49;99049.19;;;8.12;100.00
63715;BME280;49858;48.956;9.076;2023-04-08T02:30:20;99046.25;;;8.67;100.00
63715;BME280;49858;48.956;9.076;2023-04-08T02:32:49;99046.34;;;8.29;100.00
63715;BME280;49858;48.956;9.076;2023-04-08T02:35:17;99050.97;;;8.08;100.00
63715;BME280;49858;48.956;9.076;2023-04-08T02:37:46;99055.25;;;7.97;100.00
63715;BME280;49858;48.956;9.076;2023-04-08T02:40:24;99047.06;;;8.17;100.00
63715;BME280;49858;48.956;9.076;2023-04-08T02:42:53;99045.97;;;8.10;100.00
63715;BME280;49858;48.956;9.076;2023-04-08T02:45:26;99043.81;;;8.24;100.00
63715;BME280;49858;48.956;9.076;2023-04-08T02:47:54;99051.06;;;8.20;100.00
63715;BME280;49858;48.956;9.076;2023-04-08T02:50:22;99049.94;;;8.21;100.00
63715;BME280;49858;48.956;9.076;2023-04-08T02:52:50;99047.56;;;8.40;100.00
63715;BME280;49858;48.956;9.076;2023-04-08T02:55:18;99040.09;;;8.50;100.00
63715;BME280;49858;48.956;9.076;2023-04-08T02:57:46;99036.41;;;8.45;100.00
63715;BME280;49858;48.956;9.076;2023-04-08T03:00:14;99041.00;;;8.95;100.00
63715;BME280;49858;48.956;9.076;2023-04-08T03:02:44;99046.13;;;9.18;100.00
63715;BME280;49858;48.956;9.076;2023-04-08T03:05:12;99045.03;;;9.43;100.00
63715;BME280;49858;48.956;9.076;2023-04-08T03:07:41;99035.97;;;9.31;100.00
63715;BME280;49858;48.956;9.076;2023-04-08T03:10:11;99044.53;;;9.29;100.00
63715;BME280;49858;48.956;9.076;2023-04-08T03:12:44;99049.41;;;9.57;100.00
63715;BME280;49858;48.956;9.076;2023-04-08T03:15:12;99043.00;;;9.53;100.00
63715;BME280;49858;48.956;9.076;2023-04-08T03:17:39;99047.84;;;9.80;100.00
63715;BME280;49858;48.956;9.076;2023-04-08T03:20:10;99040.50;;;9.60;100.00
63715;BME280;49858;48.956;9.076;2023-04-08T03:22:37;99044.06;;;9.60;100.00
63715;BME280;49858;48.956;9.076;2023-04-08T03:25:06;99042.41;;;9.02;100.00
63715;BME280;49858;48.956;9.076;2023-04-08T03:27:34;99045.59;;;8.70;100.00
63715;BME280;49858;48.956;9.076;2023-04-08T03:30:02;99043.66;;;9.50;100.00
63715;BME280;49858;48.956;9.076;2023-04-08T03:32:30;99051.19;;;8.74;100.00
63715;BME280;49858;48.956;9.076;2023-04-08T03:34:59;99046.59;;;8.66;100.00
63715;BME280;49858;48.956;9.076;2023-04-08T03:37:28;99050.97;;;8.37;100.00
63715;BME280;49858;48.956;9.076;2023-04-08T03:39:56;99056.84;;;7.98;100.00
63715;BME280;49858;48.956;9.076;2023-04-08T03:42:27;99053.59;;;8.55;100.00
63715;BME280;49858;48.956;9.076;2023-04-08T03:44:55;99051.56;;;9.06;100.00
63715;BME280;49858;48.956;9.076;2023-04-08T03:47:22;99048.06;;;8.42;100.00
63715;BME280;49858;48.956;9.076;2023-04-08T03:49:51;99058.81;;;7.88;100.00
63715;BME280;49858;48.956;9.076;2023-04-08T03:52:20;99056.44;;;7.78;100.00
63715;BME280;49858;48.956;9.076;2023-04-08T03:54:49;99058.22;;;7.74;100.00
63715;BME280;49858;48.956;9.076;2023-04-08T03:57:16;99058.53;;;7.81;100.00
63715;BME280;49858;48.956;9.076;2023-04-08T03:59:44;99056.63;;;7.73;100.00
63715;BME280;49858;48.956;9.076;2023-04-08T04:02:12;99050.25;;;7.90;100.00
63715;BME280;49858;48.956;9.076;2023-04-08T04:04:40;99053.19;;;7.85;100.00
63715;BME280;49858;48.956;9.076;2023-04-08T04:07:08;99051.44;;;7.80;100.00
63715;BME280;49858;48.956;9.076;2023-04-08T04:09:36;99055.25;;;7.97;100.00
63715;BME280;49858;48.956;9.076;2023-04-08T04:12:05;99047.44;;;8.07;100.00
63715;BME280;49858;48.956;9.076;2023-04-08T04:14:33;99048.69;;;9.02;100.00
63715;BME280;49858;48.956;9.076;2023-04-08T04:17:01;99046.44;;;9.16;100.00
63715;BME280;49858;48.956;9.076;2023-04-08T04:19:29;99049.25;;;9.29;100.00
63715;BME280;49858;48.956;9.076;2023-04-08T04:21:58;99049.91;;;10.08;100.00
63715;BME280;49858;48.956;9.076;2023-04-08T04:24:25;99046.72;;;10.70;100.00
63715;BME280;49858;48.956;9.076;2023-04-08T04:26:53;99045.66;;;10.87;100.00
63715;BME280;49858;48.956;9.076;2023-04-08T04:29:23;99050.81;;;10.89;100.00
63715;BME280;49858;48.956;9.076;2023-04-08T04:31:51;99055.38;;;10.97;100.00
63715;BME280;49858;48.956;9.076;2023-04-08T04:34:18;99048.19;;;10.80;100.00
63715;BME280;49858;48.956;9.076;2023-04-08T04:36:46;99051.28;;;10.38;100.00
63715;BME280;49858;48.956;9.076;2023-04-08T04:39:14;99057.13;;;10.00;100.00
63715;BME280;49858;48.956;9.076;2023-04-08T04:41:42;99052.88;;;9.90;100.00
63715;BME280;49858;48.956;9.076;2023-04-08T04:44:10;99058.97;;;9.38;100.00
63715;BME280;49858;48.956;9.076;2023-04-08T04:46:39;99055.63;;;9.90;100.00
63715;BME280;49858;48.956;9.076;2023-04-08T04:49:07;99059.16;;;10.15;100.00
63715;BME280;49858;48.956;9.076;2023-04-08T04:51:35;99061.78;;;10.48;100.00
63715;BME280;49858;48.956;9.076;2023-04-08T04:54:03;99067.56;;;10.31;100.00
63715;BME280;49858;48.956;9.076;2023-04-08T04:56:31;99063.31;;;10.46;100.00
63715;BME280;49858;48.956;9.076;2023-04-08T04:58:59;99066.38;;;10.57;100.00
63715;BME280;49858;48.956;9.076;2023-04-08T05:01:27;99066.53;;;10.36;100.00
63715;BME280;49858;48.956;9.076;2023-04-08T05:03:56;99076.91;;;10.06;100.00
63715;BME280;49858;48.956;9.076;2023-04-08T05:06:24;99070.25;;;9.58;100.00
63715;BME280;49858;48.956;9.076;2023-04-08T05:08:53;99073.34;;;8.90;100.00
63715;BME280;49858;48.956;9.076;2023-04-08T05:11:21;99077.97;;;8.56;100.00
63715;BME280;49858;48.956;9.076;2023-04-08T05:13:48;99088.25;;;8.30;100.00
63715;BME280;49858;48.956;9.076;2023-04-08T05:16:16;99090.94;;;8.68;100.00
63715;BME280;49858;48.956;9.076;2023-04-08T05:18:44;99087.78;;;8.99;100.00
63715;BME280;49858;48.956;9.076;2023-04-08T05:21:13;99093.53;;;9.06;100.00
63715;BME280;49858;48.956;9.076;2023-04-08T05:23:41;99090.50;;;9.20;100.00
63715;BME280;49858;48.956;9.076;2023-04-08T05:26:09;99092.28;;;9.37;100.00
63715;BME280;49858;48.956;9.076;2023-04-08T05:28:37;99092.72;;;9.06;100.00
63715;BME280;49858;48.956;9.076;2023-04-08T05:31:05;99097.22;;;9.43;100.00
63715;BME280;49858;48.956;9.076;2023-04-08T05:33:32;99096.25;;;9.06;100.00
63715;BME280;49858;48.956;9.076;2023-04-08T05:36:00;99102.84;;;8.93;100.00
63715;BME280;49858;48.956;9.076;2023-04-08T05:38:30;99107.09;;;8.40;100.00
63715;BME280;49858;48.956;9.076;2023-04-08T05:40:57;99110.53;;;8.28;100.00
63715;BME280;49858;48.956;9.076;2023-04-08T05:43:25;99111.34;;;7.90;100.00
63715;BME280;49858;48.956;9.076;2023-04-08T05:45:53;99114.56;;;7.84;100.00
63715;BME280;49858;48.956;9.076;2023-04-08T05:48:21;99117.56;;;7.53;100.00
63715;BME280;49858;48.956;9.076;2023-04-08T05:50:49;99117.72;;;7.48;100.00
63715;BME280;49858;48.956;9.076;2023-04-08T05:53:17;99123.94;;;7.74;100.00
63715;BME280;49858;48.956;9.076;2023-04-08T05:55:46;99130.34;;;8.25;100.00
63715;BME280;49858;48.956;9.076;2023-04-08T05:58:14;99119.44;;;8.76;100.00
63715;BME280;49858;48.956;9.076;2023-04-08T06:00:42;99127.81;;;9.00;100.00
63715;BME280;49858;48.956;9.076;2023-04-08T06:03:10;99124.88;;;9.38;100.00
63715;BME280;49858;48.956;9.076;2023-04-08T06:05:38;99128.44;;;9.84;100.00
63715;BME280;49858;48.956;9.076;2023-04-08T06:08:06;99127.66;;;9.84;100.00
63715;BME280;49858;48.956;9.076;2023-04-08T06:10:34;99135.75;;;9.80;100.00
63715;BME280;49858;48.956;9.076;2023-04-08T06:13:04;99134.34;;;9.62;100.00
63715;BME280;49858;48.956;9.076;2023-04-08T06:15:31;99132.38;;;9.62;100.00
63715;BME280;49858;48.956;9.076;2023-04-08T06:17:59;99131.59;;;9.62;100.00
63715;BME280;49858;48.956;9.076;2023-04-08T06:20:27;99130.88;;;9.53;100.00
63715;BME280;49858;48.956;9.076;2023-04-08T06:22:55;99136.94;;;9.46;100.00
63715;BME280;49858;48.956;9.076;2023-04-08T06:25:23;99141.78;;;8.86;100.00
63715;BME280;49858;48.956;9.076;2023-04-08T06:27:51;99154.22;;;8.63;100.00
63715;BME280;49858;48.956;9.076;2023-04-08T06:30:20;99146.47;;;8.86;100.00
63715;BME280;49858;48.956;9.076;2023-04-08T06:32:48;99135.44;;;9.48;100.00
63715;BME280;49858;48.956;9.076;2023-04-08T06:35:16;99151.00;;;9.90;100.00
63715;BME280;49858;48.956;9.076;2023-04-08T06:37:44;99149.88;;;10.03;100.00
63715;BME280;49858;48.956;9.076;2023-04-08T06:40:12;99147.22;;;9.94;100.00
63715;BME280;49858;48.956;9.076;2023-04-08T06:42:40;99147.25;;;10.19;100.00
63715;BME280;49858;48.956;9.076;2023-04-08T06:45:27;99148.75;;;10.78;100.00
63715;BME280;49858;48.956;9.076;2023-04-08T06:47:55;99150.00;;;10.92;100.00
63715;BME280;49858;48.956;9.076;2023-04-08T06:50:23;99153.34;;;10.49;100.00
63715;BME280;49858;48.956;9.076;2023-04-08T06:52:50;99157.13;;;10.57;100.00
63715;BME280;49858;48.956;9.076;2023-04-08T06:55:18;99159.47;;;11.07;100.00
63715;BME280;49858;48.956;9.076;2023-04-08T06:57:46;99158.75;;;11.10;100.00
63715;BME280;49858;48.956;9.076;2023-04-08T07:00:15;99158.75;;;10.58;100.00
63715;BME280;49858;48.956;9.076;2023-04-08T07:02:44;99163.56;;;11.25;100.00
63715;BME280;49858;48.956;9.076;2023-04-08T07:05:12;99166.56;;;11.76;100.00
63715;BME280;49858;48.956;9.076;2023-04-08T07:07:40;99159.84;;;10.93;100.00
63715;BME280;49858;48.956;9.076;2023-04-08T07:10:11;99174.47;;;11.10;100.00
63715;BME280;49858;48.956;9.076;2023-04-08T07:12:39;99167.00;;;10.82;100.00
63715;BME280;49858;48.956;9.076;2023-04-08T07:15:08;99163.84;;;10.96;100.00
63715;BME280;49858;48.956;9.076;2023-04-08T07:17:36;99164.69;;;10.23;100.00
63715;BME280;49858;48.956;9.076;2023-04-08T07:20:07;99161.69;;;11.02;100.00
63715;BME280;49858;48.956;9.076;2023-04-08T07:22:35;99163.19;;;11.27;100.00
63715;BME280;49858;48.956;9.076;2023-04-08T07:25:03;99168.72;;;12.46;100.00
63715;BME280;49858;48.956;9.076;2023-04-08T07:27:32;99172.16;;;12.91;100.00
63715;BME280;49858;48.956;9.076;2023-04-08T07:30:00;99169.97;;;13.35;100.00
63715;BME280;49858;48.956;9.076;2023-04-08T07:32:28;99170.66;;;13.13;100.00
63715;BME280;49858;48.956;9.076;2023-04-08T07:34:57;99168.50;;;13.22;100.00
63715;BME280;49858;48.956;9.076;2023-04-08T07:37:27;99160.22;;;13.61;100.00
63715;BME280;49858;48.956;9.076;2023-04-08T07:39:55;99167.16;;;13.16;100.00
63715;BME280;49858;48.956;9.076;2023-04-08T07:42:23;99180.41;;;12.24;100.00
63715;BME280;49858;48.956;9.076;2023-04-08T07:44:51;99179.59;;;12.08;100.00
63715;BME280;49858;48.956;9.076;2023-04-08T07:47:19;99177.13;;;12.34;100.00
63715;BME280;49858;48.956;9.076;2023-04-08T07:49:47;99184.97;;;12.83;100.00
63715;BME280;49858;48.956;9.076;2023-04-08T07:52:15;99182.28;;;12.20;100.00
63715;BME280;49858;48.956;9.076;2023-04-08T07:54:44;99188.25;;;12.89;100.00
63715;BME280;49858;48.956;9.076;2023-04-08T07:57:12;99182.41;;;13.45;100.00
63715;BME280;49858;48.956;9.076;2023-04-08T07:59:40;99182.59;;;11.59;100.00
63715;BME280;49858;48.956;9.076;2023-04-08T08:02:08;99195.81;;;11.13;100.00
63715;BME280;49858;48.956;9.076;2023-04-08T08:04:36;99198.06;;;11.35;100.00
63715;BME280;49858;48.956;9.076;2023-04-08T08:07:04;99196.88;;;12.05;100.00
63715;BME280;49858;48.956;9.076;2023-04-08T08:09:32;99200.94;;;11.26;100.00
63715;BME280;49858;48.956;9.076;2023-04-08T08:12:01;99193.94;;;11.57;100.00
63715;BME280;49858;48.956;9.076;2023-04-08T08:14:29;99208.34;;;11.50;100.00
63715;BME280;49858;48.956;9.076;2023-04-08T08:16:57;99197.81;;;13.26;100.00
63715;BME280;49858;48.956;9.076;2023-04-08T08:19:25;99199.34;;;13.43;100.00
63715;BME280;49858;48.956;9.076;2023-04-08T08:21:52;99195.06;;;13.65;100.00
63715;BME280;49858;48.956;9.076;2023-04-08T08:24:21;99199.81;;;14.49;100.00
63715;BME280;49858;48.956;9.076;2023-04-08T08:26:49;99195.66;;;14.89;100.00
63715;BME280;49858;48.956;9.076;2023-04-08T08:29:18;99197.53;;;14.13;100.00
63715;BME280;49858;48.956;9.076;2023-04-08T08:31:46;99204.31;;;14.61;100.00
63715;BME280;49858;48.956;9.076;2023-04-08T08:34:14;99199.47;;;14.77;100.00
63715;BME280;49858;48.956;9.076;2023-04-08T08:36:42;99202.34;;;15.15;100.00
63715;BME280;49858;48.956;9.076;2023-04-08T08:39:10;99199.41;;;14.28;100.00
63715;BME280;49858;48.956;9.076;2023-04-08T08:41:38;99205.53;;;14.18;100.00
63715;BME280;49858;48.956;9.076;2023-04-08T08:44:08;99206.84;;;13.43;100.00
63715;BME280;49858;48.956;9.076;2023-04-08T08:46:42;99213.13;;;13.78;100.00
63715;BME280;49858;48.956;9.076;2023-04-08T08:49:11;99210.72;;;14.42;100.00
63715;BME280;49858;48.956;9.076;2023-04-08T08:51:39;99213.72;;;14.79;100.00
63715;BME280;49858;48.956;9.076;2023-04-08T08:54:07;99212.63;;;15.11;97.45
63715;BME280;49858;48.956;9.076;2023-04-08T08:56:35;99216.28;;;15.78;96.64
63715;BME280;49858;48.956;9.076;2023-04-08T08:59:02;99215.25;;;16.72;93.81
63715;BME280;49858;48.956;9.076;2023-04-08T09:01:31;99227.81;;;17.79;88.60
63715;BME280;49858;48.956;9.076;2023-04-08T09:04:15;99222.44;;;16.76;90.49
63715;BME280;49858;48.956;9.076;2023-04-08T09:06:44;99217.84;;;17.02;92.07
63715;BME280;49858;48.956;9.076;2023-04-08T09:09:13;99219.34;;;16.92;87.71
63715;BME280;49858;48.956;9.076;2023-04-08T09:11:43;99224.75;;;18.17;83.19
63715;BME280;49858;48.956;9.076;2023-04-08T09:14:19;99223.44;;;16.17;93.49
63715;BME280;49858;48.956;9.076;2023-04-08T09:16:47;99226.25;;;17.09;90.13
63715;BME280;49858;48.956;9.076;2023-04-08T09:19:18;99220.22;;;16.11;94.63
63715;BME280;49858;48.956;9.076;2023-04-08T09:22:03;99220.28;;;17.10;90.48
63715;BME280;49858;48.956;9.076;2023-04-08T09:24:31;99220.66;;;17.05;88.16
63715;BME280;49858;48.956;9.076;2023-04-08T09:26:59;99222.22;;;16.99;83.99
63715;BME280;49858;48.956;9.076;2023-04-08T09:29:27;99215.22;;;17.30;80.38
63715;BME280;49858;48.956;9.076;2023-04-08T09:32:00;99223.56;;;16.31;80.37
63715;BME280;49858;48.956;9.076;2023-04-08T09:34:30;99220.25;;;16.59;79.25
63715;BME280;49858;48.956;9.076;2023-04-08T09:37:00;99228.16;;;17.01;73.23
63715;BME280;49858;48.956;9.076;2023-04-08T09:39:27;99221.22;;;17.36;69.95
63715;BME280;49858;48.956;9.076;2023-04-08T09:41:57;99214.84;;;17.32;71.25
63715;BME280;49858;48.956;9.076;2023-04-08T09:44:27;99228.13;;;16.50;69.97
63715;BME280;49858;48.956;9.076;2023-04-08T09:47:00;99225.34;;;16.50;71.89
63715;BME280;49858;48.956;9.076;2023-04-08T09:49:37;99224.16;;;16.47;74.41
63715;BME280;49858;48.956;9.076;2023-04-08T09:52:06;99226.09;;;16.43;78.52
63715;BME280;49858;48.956;9.076;2023-04-08T09:54:40;99224.69;;;16.23;74.89
63715;BME280;49858;48.956;9.076;2023-04-08T09:57:12;99226.56;;;16.56;77.60
63715;BME280;49858;48.956;9.076;2023-04-08T09:59:44;99216.88;;;16.76;78.75
63715;BME280;49858;48.956;9.076;2023-04-08T10:02:16;99226.03;;;16.84;75.84
63715;BME280;49858;48.956;9.076;2023-04-08T10:04:51;99221.56;;;17.24;72.14
63715;BME280;49858;48.956;9.076;2023-04-08T10:07:21;99226.34;;;17.27;73.42
63715;BME280;49858;48.956;9.076;2023-04-08T10:09:49;99228.03;;;16.39;73.48
63715;BME280;49858;48.956;9.076;2023-04-08T10:12:18;99230.31;;;15.93;82.14
63715;BME280;49858;48.956;9.076;2023-04-08T10:15:23;99217.38;;;16.45;78.89
63715;BME280;49858;48.956;9.076;2023-04-08T10:17:51;99225.31;;;16.05;76.00
63715;BME280;49858;48.956;9.076;2023-04-08T10:20:43;99219.16;;;15.86;75.39
63715;BME280;49858;48.956;9.076;2023-04-08T10:23:13;99219.88;;;15.52;77.00
63715;BME280;49858;48.956;9.076;2023-04-08T10:25:42;99223.31;;;15.42;80.17
63715;BME280;49858;48.956;9.076;2023-04-08T10:28:23;99209.91;;;15.48;78.17
63715;BME280;49858;48.956;9.076;2023-04-08T10:30:52;99215.25;;;15.60;78.28
63715;BME280;49858;48.956;9.076;2023-04-08T10:33:22;99219.94;;;15.86;80.08
63715;BME280;49858;48.956;9.076;2023-04-08T10:36:00;99225.31;;;16.46;76.81
63715;BME280;49858;48.956;9.076;2023-04-08T10:38:35;99224.97;;;16.10;70.67
63715;BME280;49858;48.956;9.076;2023-04-08T10:41:03;99218.81;;;16.28;72.33
63715;BME280;49858;48.956;9.076;2023-04-08T10:43:32;99222.19;;;16.10;71.98
63715;BME280;49858;48.956;9.076;2023-04-08T10:46:00;99222.91;;;15.67;77.22
63715;BME280;49858;48.956;9.076;2023-04-08T10:48:28;99223.97;;;15.92;73.47
63715;BME280;49858;48.956;9.076;2023-04-08T10:50:58;99220.06;;;15.97;75.30
63715;BME280;49858;48.956;9.076;2023-04-08T10:53:28;99232.00;;;15.67;75.61
63715;BME280;49858;48.956;9.076;2023-04-08T10:56:05;99221.00;;;15.74;72.27
63715;BME280;49858;48.956;9.076;2023-04-08T10:58:34;99227.09;;;15.87;74.68
63715;BME280;49858;48.956;9.076;2023-04-08T11:01:03;99221.19;;;16.29;71.59
63715;BME280;49858;48.956;9.076;2023-04-08T11:03:33;99224.13;;;16.06;71.48
63715;BME280;49858;48.956;9.076;2023-04-08T11:06:03;99224.28;;;16.21;77.90
63715;BME280;49858;48.956;9.076;2023-04-08T11:08:33;99226.06;;;15.69;76.32
63715;BME280;49858;48.956;9.076;2023-04-08T11:11:03;99221.16;;;15.28;77.91
63715;BME280;49858;48.956;9.076;2023-04-08T11:13:35;99222.19;;;15.17;80.54
63715;BME280;49858;48.956;9.076;2023-04-08T11:16:03;99223.38;;;15.46;77.33
63715;BME280;49858;48.956;9.076;2023-04-08T11:18:44;99220.88;;;15.07;79.81
63715;BME280;49858;48.956;9.076;2023-04-08T11:21:14;99228.47;;;15.14;81.68
63715;BME280;49858;48.956;9.076;2023-04-08T11:23:42;99227.53;;;15.02;79.23
63715;BME280;49858;48.956;9.076;2023-04-08T11:26:10;99226.16;;;15.19;81.16
63715;BME280;49858;48.956;9.076;2023-04-08T11:28:38;99222.53;;;15.12;80.71
63715;BME280;49858;48.956;9.076;2023-04-08T11:31:06;99220.78;;;15.60;79.47
63715;BME280;49858;48.956;9.076;2023-04-08T11:33:34;99221.91;;;15.55;78.42
63715;BME280;49858;48.956;9.076;2023-04-08T11:36:03;99214.66;;;15.44;79.93
63715;BME280;49858;48.956;9.076;2023-04-08T11:38:38;99213.22;;;15.00;80.74
63715;BME280;49858;48.956;9.076;2023-04-08T11:41:05;99216.50;;;14.79;78.50
63715;BME280;49858;48.956;9.076;2023-04-08T11:43:35;99217.19;;;14.99;79.82
63715;BME280;49858;48.956;9.076;2023-04-08T11:46:08;99216.81;;;15.01;82.36
63715;BME280;49858;48.956;9.076;2023-04-08T11:48:37;99224.44;;;14.58;81.52
63715;BME280;49858;48.956;9.076;2023-04-08T11:51:06;99220.91;;;14.38;84.92
63715;BME280;49858;48.956;9.076;2023-04-08T11:53:36;99213.88;;;14.64;84.42
63715;BME280;49858;48.956;9.076;2023-04-08T11:56:17;99215.25;;;14.77;80.05
63715;BME280;49858;48.956;9.076;2023-04-08T11:58:46;99215.03;;;14.63;82.86
63715;BME280;49858;48.956;9.076;2023-04-08T12:01:14;99220.03;;;14.34;81.60
63715;BME280;49858;48.956;9.076;2023-04-08T12:03:58;99218.69;;;14.47;82.23
63715;BME280;49858;48.956;9.076;2023-04-08T12:06:27;99216.66;;;14.90;80.69
63715;BME280;49858;48.956;9.076;2023-04-08T12:08:58;99220.84;;;14.35;83.62
63715;BME280;49858;48.956;9.076;2023-04-08T12:11:26;99220.84;;;14.12;84.63
63715;BME280;49858;48.956;9.076;2023-04-08T12:13:54;99225.22;;;14.13;85.10
63715;BME280;49858;48.956;9.076;2023-04-08T12:16:23;99220.47;;;14.13;87.47
63715;BME280;49858;48.956;9.076;2023-04-08T12:18:52;99223.25;;;14.36;81.23
63715;BME280;49858;48.956;9.076;2023-04-08T12:21:20;99224.22;;;14.24;84.26
63715;BME280;49858;48.956;9.076;2023-04-08T12:23:48;99230.50;;;14.44;85.84
63715;BME280;49858;48.956;9.076;2023-04-08T12:26:18;99225.09;;;14.28;86.68
63715;BME280;49858;48.956;9.076;2023-04-08T12:28:46;99229.34;;;14.45;85.28
63715;BME280;49858;48.956;9.076;2023-04-08T12:31:14;99227.19;;;14.81;82.76
63715;BME280;49858;48.956;9.076;2023-04-08T12:33:42;99231.94;;;14.80;87.12
63715;BME280;49858;48.956;9.076;2023-04-08T12:36:10;99224.94;;;14.64;89.19
63715;BME280;49858;48.956;9.076;2023-04-08T12:38:39;99227.53;;;14.53;88.38
63715;BME280;49858;48.956;9.076;2023-04-08T12:41:07;99227.41;;;14.69;87.67
63715;BME280;49858;48.956;9.076;2023-04-08T12:43:36;99237.06;;;15.05;85.34
63715;BME280;49858;48.956;9.076;2023-04-08T12:46:04;99227.69;;;15.13;84.82
63715;BME280;49858;48.956;9.076;2023-04-08T12:48:33;99228.25;;;14.99;86.73
63715;BME280;49858;48.956;9.076;2023-04-08T12:51:02;99228.78;;;15.35;81.05
63715;BME280;49858;48.956;9.076;2023-04-08T12:53:30;99219.78;;;15.72;80.65
63715;BME280;49858;48.956;9.076;2023-04-08T12:55:58;99218.16;;;15.67;81.21
63715;BME280;49858;48.956;9.076;2023-04-08T12:58:26;99217.94;;;15.83;80.87
63715;BME280;49858;48.956;9.076;2023-04-08T13:00:55;99218.72;;;15.83;78.58
63715;BME280;49858;48.956;9.076;2023-04-08T13:03:23;99224.03;;;15.66;80.77
63715;BME280;49858;48.956;9.076;2023-04-08T13:05:51;99221.81;;;16.12;81.10
63715;BME280;49858;48.956;9.076;2023-04-08T13:08:19;99231.84;;;16.24;80.69
63715;BME280;49858;48.956;9.076;2023-04-08T13:10:47;99221.41;;;16.10;77.58